sensor_id;sensor_type;location;lat;lon;timestamp;pressure;altitude;pressure_sealevel;temperature;humidity
72096;BME280;59968;51.084;16.748;2023-04-26T00:01:24;99883.93;;;4.99;67.12
72096;BME280;59968;51.084;16.748;2023-04-26T00:04:12;99883.40;;;4.97;67.18
72096;BME280;59968;51.084;16.748;2023-04-26T00:07:03;99880.31;;;4.94;67.17
72096;BME280;59968;51.084;16.748;2023-04-26T00:09:32;99882.69;;;4.92;67.24
72096;BME280;59968;51.084;16.748;2023-04-26T00:12:07;99879.77;;;4.91;67.31
72096;BME280;59968;51.084;16.748;2023-04-26T00:14:42;99882.30;;;4.88;67.31
72096;BME280;59968;51.084;16.748;2023-04-26T00:17:18;99884.52;;;4.82;67.29
72096;BME280;59968;51.084;16.748;2023-04-26T00:19:57;99884.73;;;4.77;67.45
72096;BME280;59968;51.084;16.748;2023-04-26T00:22:38;99888.33;;;4.72;67.52
72096;BME280;59968;51.084;16.748;2023-04-26T00:25:30;99887.88;;;4.65;67.57
72096;BME280;59968;51.084;16.748;2023-04-26T00:28:19;99892.67;;;4.62;67.67
72096;BME280;59968;51.084;16.748;2023-04-26T00:31:06;99864.67;;;4.43;67.75
72096;BME280;59968;51.084;16.748;2023-04-26T00:33:42;99889.90;;;4.55;67.99
72096;BME280;59968;51.084;16.748;2023-04-26T00:36:36;99893.21;;;4.51;68.13
72096;BME280;59968;51.084;16.748;2023-04-26T00:39:08;99893.55;;;4.47;68.15
72096;BME280;59968;51.084;16.748;2023-04-26T00:41:44;99897.06;;;4.46;68.29
72096;BME280;59968;51.084;16.748;2023-04-26T00:44:19;99897.29;;;4.45;68.38
72096;BME280;59968;51.084;16.748;2023-04-26T00:46:59;99902.23;;;4.49;68.31
72096;BME280;59968;51.084;16.748;2023-04-26T00:49:54;99905.46;;;4.49;68.40
72096;BME280;59968;51.084;16.748;2023-04-26T00:52:36;99907.91;;;4.47;68.60
72096;BME280;59968;51.084;16.748;2023-04-26T00:55:51;99909.44;;;4.44;68.63
72096;BME280;59968;51.084;16.748;2023-04-26T00:58:54;99914.99;;;4.40;68.78
72096;BME280;59968;51.084;16.748;2023-04-26T01:01:26;99917.04;;;4.38;68.78
72096;BME280;59968;51.084;16.748;2023-04-26T01:04:08;99915.69;;;4.38;68.86
72096;BME280;59968;51.084;16.748;2023-04-26T01:06:44;99916.67;;;4.40;68.75
72096;BME280;59968;51.084;16.748;2023-04-26T01:09:20;99916.50;;;4.39;68.81
72096;BME280;59968;51.084;16.748;2023-04-26T01:11:51;99915.80;;;4.37;68.90
72096;BME280;59968;51.084;16.748;2023-04-26T01:14:27;99920.05;;;4.36;69.05
72096;BME280;59968;51.084;16.748;2023-04-26T01:17:07;99918.51;;;4.34;69.14
72096;BME280;59968;51.084;16.748;2023-04-26T01:19:46;99918.77;;;4.30;69.35
72096;BME280;59968;51.084;16.748;2023-04-26T01:22:23;99921.94;;;4.29;69.56
72096;BME280;59968;51.084;16.748;2023-04-26T01:25:00;99924.00;;;4.28;69.81
72096;BME280;59968;51.084;16.748;2023-04-26T01:27:50;99929.59;;;4.29;69.75
72096;BME280;59968;51.084;16.748;2023-04-26T01:30:30;99929.98;;;4.32;69.88
72096;BME280;59968;51.084;16.748;2023-04-26T01:33:13;99927.04;;;4.34;69.83
72096;BME280;59968;51.084;16.748;2023-04-26T01:35:44;99933.11;;;4.33;69.99
72096;BME280;59968;51.084;16.748;2023-04-26T01:38:14;99929.89;;;4.30;70.16
72096;BME280;59968;51.084;16.748;2023-04-26T01:40:51;99934.61;;;4.29;70.33
72096;BME280;59968;51.084;16.748;2023-04-26T01:43:31;99935.02;;;4.28;70.40
72096;BME280;59968;51.084;16.748;2023-04-26T01:46:06;99934.98;;;4.27;70.50
72096;BME280;59968;51.084;16.748;2023-04-26T01:48:45;99934.55;;;4.27;70.79
72096;BME280;59968;51.084;16.748;2023-04-26T01:51:28;99920.05;;;4.16;70.99
72096;BME280;59968;51.084;16.748;2023-04-26T01:54:07;99940.23;;;4.26;71.20
72096;BME280;59968;51.084;16.748;2023-04-26T01:56:39;99942.91;;;4.27;71.33
72096;BME280;59968;51.084;16.748;2023-04-26T01:59:22;99941.14;;;4.27;71.57
72096;BME280;59968;51.084;16.748;2023-04-26T02:01:51;99946.87;;;4.28;71.73
72096;BME280;59968;51.084;16.748;2023-04-26T02:04:29;99943.43;;;4.30;71.91
72096;BME280;59968;51.084;16.748;2023-04-26T02:07:01;99944.79;;;4.28;72.03
72096;BME280;59968;51.084;16.748;2023-04-26T02:09:59;99945.98;;;4.32;72.22
72096;BME280;59968;51.084;16.748;2023-04-26T02:12:37;99947.67;;;4.32;72.37
72096;BME280;59968;51.084;16.748;2023-04-26T02:15:12;99944.92;;;4.34;72.41
72096;BME280;59968;51.084;16.748;2023-04-26T02:17:46;99937.48;;;4.34;72.48
72096;BME280;59968;51.084;16.748;2023-04-26T02:20:48;99950.98;;;4.44;72.62
72096;BME280;59968;51.084;16.748;2023-04-26T02:23:25;99949.73;;;4.46;72.78
72096;BME280;59968;51.084;16.748;2023-04-26T02:26:03;99948.48;;;4.48;72.72
72096;BME280;59968;51.084;16.748;2023-04-26T02:28:55;99946.54;;;4.51;72.78
72096;BME280;59968;51.084;16.748;2023-04-26T02:31:29;99940.63;;;4.50;72.79
72096;BME280;59968;51.084;16.748;2023-04-26T02:34:08;99943.36;;;4.53;72.68
72096;BME280;59968;51.084;16.748;2023-04-26T02:36:46;99943.89;;;4.55;72.68
72096;BME280;59968;51.084;16.748;2023-04-26T02:39:39;99939.42;;;4.53;72.65
72096;BME280;59968;51.084;16.748;2023-04-26T02:42:23;99936.71;;;4.55;72.45
72096;BME280;59968;51.084;16.748;2023-04-26T02:45:03;99945.63;;;4.56;72.54
72096;BME280;59968;51.084;16.748;2023-04-26T02:47:41;99949.58;;;4.56;72.53
72096;BME280;59968;51.084;16.748;2023-04-26T02:50:20;99949.79;;;4.56;72.57
72096;BME280;59968;51.084;16.748;2023-04-26T02:52:57;99951.38;;;4.54;72.59
72096;BME280;59968;51.084;16.748;2023-04-26T02:55:40;99950.61;;;4.54;72.57
72096;BME280;59968;51.084;16.748;2023-04-26T02:58:18;99956.03;;;4.55;72.58
72096;BME280;59968;51.084;16.748;2023-04-26T03:00:58;99953.75;;;4.54;72.62
72096;BME280;59968;51.084;16.748;2023-04-26T03:03:39;99951.70;;;4.52;72.55
72096;BME280;59968;51.084;16.748;2023-04-26T03:06:27;99953.95;;;4.52;72.50
72096;BME280;59968;51.084;16.748;2023-04-26T03:09:03;99955.16;;;4.52;72.50
72096;BME280;59968;51.084;16.748;2023-04-26T03:11:42;99955.23;;;4.50;72.57
72096;BME280;59968;51.084;16.748;2023-04-26T03:14:36;99962.67;;;4.49;72.47
72096;BME280;59968;51.084;16.748;2023-04-26T03:17:10;99964.86;;;4.47;72.46
72096;BME280;59968;51.084;16.748;2023-04-26T03:19:57;99970.17;;;4.47;72.42
72096;BME280;59968;51.084;16.748;2023-04-26T03:25:15;99977.73;;;4.42;72.25
72096;BME280;59968;51.084;16.748;2023-04-26T03:27:50;99974.66;;;4.40;72.23
72096;BME280;59968;51.084;16.748;2023-04-26T03:30:32;99976.77;;;4.38;72.16
72096;BME280;59968;51.084;16.748;2023-04-26T03:33:07;99979.77;;;4.38;72.08
72096;BME280;59968;51.084;16.748;2023-04-26T03:35:42;99986.30;;;4.37;71.96
72096;BME280;59968;51.084;16.748;2023-04-26T03:38:14;99986.45;;;4.36;71.93
72096;BME280;59968;51.084;16.748;2023-04-26T03:43:39;99990.45;;;4.32;71.78
72096;BME280;59968;51.084;16.748;2023-04-26T03:46:11;99986.40;;;4.26;71.96
72096;BME280;59968;51.084;16.748;2023-04-26T03:48:52;99987.27;;;4.23;72.02
72096;BME280;59968;51.084;16.748;2023-04-26T03:51:28;99996.00;;;4.21;72.22
72096;BME280;59968;51.084;16.748;2023-04-26T03:54:00;100002.39;;;4.19;72.35
72096;BME280;59968;51.084;16.748;2023-04-26T03:56:31;100007.56;;;4.19;72.52
72096;BME280;59968;51.084;16.748;2023-04-26T03:59:03;100006.77;;;4.20;72.73
72096;BME280;59968;51.084;16.748;2023-04-26T04:01:57;100005.08;;;4.21;72.86
72096;BME280;59968;51.084;16.748;2023-04-26T04:04:30;100008.94;;;4.24;73.10
72096;BME280;59968;51.084;16.748;2023-04-26T04:06:59;100009.38;;;4.28;73.04
72096;BME280;59968;51.084;16.748;2023-04-26T04:09:28;100012.06;;;4.33;73.08
72096;BME280;59968;51.084;16.748;2023-04-26T04:11:57;100016.87;;;4.40;72.97
72096;BME280;59968;51.084;16.748;2023-04-26T04:14:26;100020.05;;;4.44;73.19
72096;BME280;59968;51.084;16.748;2023-04-26T04:16:55;100026.30;;;4.48;73.18
72096;BME280;59968;51.084;16.748;2023-04-26T04:19:24;100029.12;;;4.52;73.35
72096;BME280;59968;51.084;16.748;2023-04-26T04:21:56;100029.55;;;4.58;73.29
72096;BME280;59968;51.084;16.748;2023-04-26T04:24:32;100029.96;;;4.64;73.22
72096;BME280;59968;51.084;16.748;2023-04-26T04:27:05;100028.61;;;4.69;73.24
72096;BME280;59968;51.084;16.748;2023-04-26T04:29:41;100033.27;;;4.75;73.08
72096;BME280;59968;51.084;16.748;2023-04-26T04:32:16;100024.55;;;4.73;72.81
72096;BME280;59968;51.084;16.748;2023-04-26T04:34:51;100022.80;;;4.78;72.67
72096;BME280;59968;51.084;16.748;2023-04-26T04:37:21;100034.38;;;4.92;72.63
72096;BME280;59968;51.084;16.748;2023-04-26T04:39:54;100036.59;;;4.97;72.69
72096;BME280;59968;51.084;16.748;2023-04-26T04:42:29;100025.89;;;4.94;72.41
72096;BME280;59968;51.084;16.748;2023-04-26T04:44:58;100037.05;;;5.07;72.31
72096;BME280;59968;51.084;16.748;2023-04-26T04:47:28;100043.64;;;5.10;71.92
72096;BME280;59968;51.084;16.748;2023-04-26T04:49:57;100045.18;;;5.13;71.89
72096;BME280;59968;51.084;16.748;2023-04-26T04:52:29;100048.66;;;5.19;71.65
72096;BME280;59968;51.084;16.748;2023-04-26T04:55:00;100054.73;;;5.31;71.27
72096;BME280;59968;51.084;16.748;2023-04-26T04:57:30;100056.54;;;5.42;70.94
72096;BME280;59968;51.084;16.748;2023-04-26T05:00:00;100057.64;;;5.54;70.70
72096;BME280;59968;51.084;16.748;2023-04-26T05:02:48;100058.83;;;5.67;70.01
72096;BME280;59968;51.084;16.748;2023-04-26T05:05:20;100055.14;;;5.78;69.42
72096;BME280;59968;51.084;16.748;2023-04-26T05:07:55;100061.13;;;5.88;69.03
72096;BME280;59968;51.084;16.748;2023-04-26T05:10:29;100058.73;;;5.99;68.96
72096;BME280;59968;51.084;16.748;2023-04-26T05:13:16;100059.41;;;6.12;69.01
72096;BME280;59968;51.084;16.748;2023-04-26T05:15:49;100061.38;;;6.24;67.80
72096;BME280;59968;51.084;16.748;2023-04-26T05:18:22;100061.40;;;6.34;67.72
72096;BME280;59968;51.084;16.748;2023-04-26T05:20:57;100066.55;;;6.44;67.13
72096;BME280;59968;51.084;16.748;2023-04-26T05:23:30;100066.11;;;6.54;66.96
72096;BME280;59968;51.084;16.748;2023-04-26T05:26:14;100064.05;;;6.60;66.49
72096;BME280;59968;51.084;16.748;2023-04-26T05:29:14;100069.54;;;6.68;66.63
72096;BME280;59968;51.084;16.748;2023-04-26T05:32:01;100072.72;;;6.72;65.57
72096;BME280;59968;51.084;16.748;2023-04-26T05:34:57;100076.58;;;6.79;66.05
72096;BME280;59968;51.084;16.748;2023-04-26T05:37:30;100075.35;;;6.85;65.52
72096;BME280;59968;51.084;16.748;2023-04-26T05:40:08;100083.66;;;6.84;64.71
72096;BME280;59968;51.084;16.748;2023-04-26T05:42:42;100076.02;;;6.81;64.70
72096;BME280;59968;51.084;16.748;2023-04-26T05:45:11;100077.11;;;6.81;64.99
72096;BME280;59968;51.084;16.748;2023-04-26T05:47:46;100078.73;;;6.85;64.95
72096;BME280;59968;51.084;16.748;2023-04-26T05:50:22;100084.66;;;6.91;64.54
72096;BME280;59968;51.084;16.748;2023-04-26T05:52:51;100083.96;;;6.95;64.64
72096;BME280;59968;51.084;16.748;2023-04-26T05:55:44;100077.60;;;7.01;64.23
72096;BME280;59968;51.084;16.748;2023-04-26T05:58:13;100080.47;;;7.08;64.32
72096;BME280;59968;51.084;16.748;2023-04-26T06:00:42;100082.71;;;7.12;65.18
72096;BME280;59968;51.084;16.748;2023-04-26T06:03:14;100085.70;;;7.19;64.36
72096;BME280;59968;51.084;16.748;2023-04-26T06:05:44;100083.52;;;7.27;64.06
72096;BME280;59968;51.084;16.748;2023-04-26T06:08:13;100084.13;;;7.28;63.26
72096;BME280;59968;51.084;16.748;2023-04-26T06:10:42;100087.34;;;7.28;63.46
72096;BME280;59968;51.084;16.748;2023-04-26T06:13:15;100096.08;;;7.33;63.22
72096;BME280;59968;51.084;16.748;2023-04-26T06:15:44;100093.97;;;7.39;63.20
72096;BME280;59968;51.084;16.748;2023-04-26T06:18:19;100093.45;;;7.47;62.73
72096;BME280;59968;51.084;16.748;2023-04-26T06:20:48;100097.44;;;7.52;62.82
72096;BME280;59968;51.084;16.748;2023-04-26T06:23:22;100102.38;;;7.57;62.38
72096;BME280;59968;51.084;16.748;2023-04-26T06:25:53;100104.09;;;7.60;62.46
72096;BME280;59968;51.084;16.748;2023-04-26T06:28:26;100103.95;;;7.64;62.13
72096;BME280;59968;51.084;16.748;2023-04-26T06:31:01;100105.85;;;7.61;61.28
72096;BME280;59968;51.084;16.748;2023-04-26T06:33:35;100110.24;;;7.58;61.75
72096;BME280;59968;51.084;16.748;2023-04-26T06:36:11;100107.23;;;7.64;61.65
72096;BME280;59968;51.084;16.748;2023-04-26T06:38:45;100102.90;;;7.71;61.31
72096;BME280;59968;51.084;16.748;2023-04-26T06:41:18;100106.13;;;7.77;61.07
72096;BME280;59968;51.084;16.748;2023-04-26T06:43:51;100098.98;;;7.74;61.25
72096;BME280;59968;51.084;16.748;2023-04-26T06:46:34;100114.92;;;7.89;60.92
72096;BME280;59968;51.084;16.748;2023-04-26T06:49:09;100109.16;;;7.95;60.74
72096;BME280;59968;51.084;16.748;2023-04-26T06:51:39;100105.74;;;8.04;60.95
72096;BME280;59968;51.084;16.748;2023-04-26T06:54:10;100105.49;;;8.12;60.55
72096;BME280;59968;51.084;16.748;2023-04-26T06:56:40;100106.71;;;8.22;60.47
72096;BME280;59968;51.084;16.748;2023-04-26T06:59:09;100107.57;;;8.30;60.38
72096;BME280;59968;51.084;16.748;2023-04-26T07:01:44;100101.89;;;8.25;60.06
72096;BME280;59968;51.084;16.748;2023-04-26T07:04:44;100112.61;;;8.30;57.94
72096;BME280;59968;51.084;16.748;2023-04-26T07:07:22;100108.20;;;8.25;57.67
72096;BME280;59968;51.084;16.748;2023-04-26T07:09:55;100126.80;;;8.34;58.31
72096;BME280;59968;51.084;16.748;2023-04-26T07:12:23;100110.13;;;8.34;56.74
72096;BME280;59968;51.084;16.748;2023-04-26T07:14:53;100111.40;;;8.44;56.87
72096;BME280;59968;51.084;16.748;2023-04-26T07:17:26;100108.94;;;8.53;55.96
72096;BME280;59968;51.084;16.748;2023-04-26T07:20:01;100109.73;;;8.67;56.81
72096;BME280;59968;51.084;16.748;2023-04-26T07:22:33;100108.90;;;8.78;56.63
72096;BME280;59968;51.084;16.748;2023-04-26T07:25:05;100112.16;;;8.87;55.38
72096;BME280;59968;51.084;16.748;2023-04-26T07:27:34;100109.50;;;8.95;55.41
72096;BME280;59968;51.084;16.748;2023-04-26T07:30:06;100116.47;;;8.92;55.75
72096;BME280;59968;51.084;16.748;2023-04-26T07:32:45;100113.74;;;8.93;53.99
72096;BME280;59968;51.084;16.748;2023-04-26T07:35:20;100117.96;;;9.05;54.84
72096;BME280;59968;51.084;16.748;2023-04-26T07:37:52;100122.88;;;9.18;54.77
72096;BME280;59968;51.084;16.748;2023-04-26T07:40:23;100121.94;;;9.24;53.68
72096;BME280;59968;51.084;16.748;2023-04-26T07:42:59;100119.11;;;9.23;53.75
72096;BME280;59968;51.084;16.748;2023-04-26T07:45:35;100121.14;;;9.28;53.91
72096;BME280;59968;51.084;16.748;2023-04-26T07:48:04;100124.18;;;9.10;52.33
72096;BME280;59968;51.084;16.748;2023-04-26T07:50:38;100128.10;;;9.11;53.61
72096;BME280;59968;51.084;16.748;2023-04-26T07:53:13;100121.59;;;9.08;52.21
72096;BME280;59968;51.084;16.748;2023-04-26T07:55:41;100126.09;;;9.02;52.66
72096;BME280;59968;51.084;16.748;2023-04-26T07:58:13;100124.55;;;8.99;53.20
72096;BME280;59968;51.084;16.748;2023-04-26T08:00:42;100122.95;;;9.01;53.30
72096;BME280;59968;51.084;16.748;2023-04-26T08:03:14;100126.00;;;9.07;52.53
72096;BME280;59968;51.084;16.748;2023-04-26T08:05:44;100124.27;;;9.05;52.20
72096;BME280;59968;51.084;16.748;2023-04-26T08:08:13;100128.17;;;8.95;51.45
72096;BME280;59968;51.084;16.748;2023-04-26T08:10:45;100122.89;;;8.86;52.12
72096;BME280;59968;51.084;16.748;2023-04-26T08:13:20;100123.52;;;8.88;52.57
72096;BME280;59968;51.084;16.748;2023-04-26T08:15:59;100126.98;;;8.89;53.19
72096;BME280;59968;51.084;16.748;2023-04-26T08:18:45;100138.75;;;8.85;52.84
72096;BME280;59968;51.084;16.748;2023-04-26T08:21:17;100131.48;;;9.03;53.46
72096;BME280;59968;51.084;16.748;2023-04-26T08:24:01;100133.20;;;9.19;53.11
72096;BME280;59968;51.084;16.748;2023-04-26T08:26:32;100130.57;;;9.44;53.25
72096;BME280;59968;51.084;16.748;2023-04-26T08:29:06;100133.54;;;9.47;51.67
72096;BME280;59968;51.084;16.748;2023-04-26T08:31:39;100136.98;;;9.38;50.61
72096;BME280;59968;51.084;16.748;2023-04-26T08:34:12;100138.59;;;9.22;51.13
72096;BME280;59968;51.084;16.748;2023-04-26T08:36:55;100133.89;;;9.17;51.70
72096;BME280;59968;51.084;16.748;2023-04-26T08:39:40;100115.05;;;9.07;52.68
72096;BME280;59968;51.084;16.748;2023-04-26T08:42:15;100139.76;;;9.22;51.55
72096;BME280;59968;51.084;16.748;2023-04-26T08:44:47;100143.51;;;9.27;51.94
72096;BME280;59968;51.084;16.748;2023-04-26T08:47:42;100146.66;;;9.32;51.30
72096;BME280;59968;51.084;16.748;2023-04-26T08:50:19;100151.73;;;9.48;51.04
72096;BME280;59968;51.084;16.748;2023-04-26T08:53:07;100147.27;;;9.62;51.64
72096;BME280;59968;51.084;16.748;2023-04-26T08:55:40;100143.64;;;9.61;50.38
72096;BME280;59968;51.084;16.748;2023-04-26T08:58:22;100150.34;;;9.50;51.87
72096;BME280;59968;51.084;16.748;2023-04-26T09:00:51;100153.70;;;9.38;51.53
72096;BME280;59968;51.084;16.748;2023-04-26T09:03:22;100152.63;;;9.30;51.70
72096;BME280;59968;51.084;16.748;2023-04-26T09:05:54;100148.61;;;9.20;51.27
72096;BME280;59968;51.084;16.748;2023-04-26T09:08:29;100148.25;;;9.30;52.44
72096;BME280;59968;51.084;16.748;2023-04-26T09:11:00;100153.26;;;9.51;51.23
72096;BME280;59968;51.084;16.748;2023-04-26T09:13:31;100147.70;;;9.63;50.63
72096;BME280;59968;51.084;16.748;2023-04-26T09:16:11;100147.91;;;9.88;51.23
72096;BME280;59968;51.084;16.748;2023-04-26T09:18:50;100148.23;;;9.95;51.04
72096;BME280;59968;51.084;16.748;2023-04-26T09:21:22;100149.96;;;9.85;51.16
72096;BME280;59968;51.084;16.748;2023-04-26T09:23:59;100151.39;;;9.79;52.57
72096;BME280;59968;51.084;16.748;2023-04-26T09:26:31;100152.14;;;9.91;51.97
72096;BME280;59968;51.084;16.748;2023-04-26T09:29:20;100150.97;;;10.08;51.17
72096;BME280;59968;51.084;16.748;2023-04-26T09:31:51;100145.98;;;10.35;51.66
72096;BME280;59968;51.084;16.748;2023-04-26T09:34:23;100145.11;;;10.51;50.30
72096;BME280;59968;51.084;16.748;2023-04-26T09:37:01;100140.09;;;10.69;48.35
72096;BME280;59968;51.084;16.748;2023-04-26T09:39:36;100139.50;;;10.94;48.52
72096;BME280;59968;51.084;16.748;2023-04-26T09:42:06;100141.01;;;11.20;48.30
72096;BME280;59968;51.084;16.748;2023-04-26T09:44:36;100146.66;;;11.26;47.58
72096;BME280;59968;51.084;16.748;2023-04-26T09:47:07;100145.10;;;11.14;46.65
72096;BME280;59968;51.084;16.748;2023-04-26T09:49:48;100142.99;;;11.13;47.63
72096;BME280;59968;51.084;16.748;2023-04-26T09:52:18;100139.91;;;11.27;45.65
72096;BME280;59968;51.084;16.748;2023-04-26T09:54:51;100136.81;;;11.38;45.05
72096;BME280;59968;51.084;16.748;2023-04-26T09:57:21;100133.50;;;11.42;44.51
72096;BME280;59968;51.084;16.748;2023-04-26T09:59:54;100129.27;;;11.50;47.35
72096;BME280;59968;51.084;16.748;2023-04-26T10:02:27;100133.55;;;11.50;46.18
72096;BME280;59968;51.084;16.748;2023-04-26T10:04:57;100137.01;;;11.31;44.13
72096;BME280;59968;51.084;16.748;2023-04-26T10:07:29;100134.91;;;11.20;46.01
72096;BME280;59968;51.084;16.748;2023-04-26T10:09:58;100133.36;;;11.15;44.74
72096;BME280;59968;51.084;16.748;2023-04-26T10:12:34;100133.70;;;11.01;46.40
72096;BME280;59968;51.084;16.748;2023-04-26T10:15:08;100138.32;;;10.98;47.21
72096;BME280;59968;51.084;16.748;2023-04-26T10:17:41;100134.55;;;11.07;46.59
72096;BME280;59968;51.084;16.748;2023-04-26T10:20:12;100137.11;;;11.25;47.20
72096;BME280;59968;51.084;16.748;2023-04-26T10:22:48;100139.52;;;11.48;46.73
72096;BME280;59968;51.084;16.748;2023-04-26T10:25:18;100135.48;;;11.66;43.49
72096;BME280;59968;51.084;16.748;2023-04-26T10:27:51;100132.98;;;11.74;43.01
72096;BME280;59968;51.084;16.748;2023-04-26T10:30:22;100137.02;;;11.74;40.99
72096;BME280;59968;51.084;16.748;2023-04-26T10:35:29;100132.06;;;11.80;42.72
72096;BME280;59968;51.084;16.748;2023-04-26T10:38:12;100131.31;;;11.86;44.20
72096;BME280;59968;51.084;16.748;2023-04-26T10:40:44;100133.52;;;12.03;43.85
72096;BME280;59968;51.084;16.748;2023-04-26T10:45:46;100134.90;;;11.83;41.76
72096;BME280;59968;51.084;16.748;2023-04-26T10:48:28;100137.07;;;11.77;41.94
72096;BME280;59968;51.084;16.748;2023-04-26T10:53:30;100138.96;;;11.86;45.38
72096;BME280;59968;51.084;16.748;2023-04-26T10:56:02;100148.13;;;11.98;44.64
72096;BME280;59968;51.084;16.748;2023-04-26T10:58:35;100140.34;;;11.95;45.16
72096;BME280;59968;51.084;16.748;2023-04-26T11:01:17;100141.57;;;12.05;45.48
72096;BME280;59968;51.084;16.748;2023-04-26T11:06:46;100136.13;;;12.40;44.23
72096;BME280;59968;51.084;16.748;2023-04-26T11:09:32;100155.84;;;12.27;43.22
72096;BME280;59968;51.084;16.748;2023-04-26T11:12:20;100154.02;;;11.83;43.93
72096;BME280;59968;51.084;16.748;2023-04-26T11:14:52;100155.64;;;11.54;43.65
72096;BME280;59968;51.084;16.748;2023-04-26T11:17:26;100155.86;;;11.35;45.00
72096;BME280;59968;51.084;16.748;2023-04-26T11:19:55;100150.73;;;11.22;45.13
72096;BME280;59968;51.084;16.748;2023-04-26T11:22:27;100151.19;;;11.12;44.84
72096;BME280;59968;51.084;16.748;2023-04-26T11:24:59;100145.02;;;11.13;45.74
72096;BME280;59968;51.084;16.748;2023-04-26T11:27:30;100135.59;;;11.26;46.69
72096;BME280;59968;51.084;16.748;2023-04-26T11:30:03;100147.98;;;11.59;45.55
72096;BME280;59968;51.084;16.748;2023-04-26T11:32:35;100140.78;;;11.81;46.22
72096;BME280;59968;51.084;16.748;2023-04-26T11:35:07;100151.46;;;11.84;46.41
72096;BME280;59968;51.084;16.748;2023-04-26T11:37:36;100158.20;;;11.67;47.93
72096;BME280;59968;51.084;16.748;2023-04-26T11:40:18;100154.94;;;11.31;48.63
72096;BME280;59968;51.084;16.748;2023-04-26T11:42:47;100162.81;;;11.05;49.81
72096;BME280;59968;51.084;16.748;2023-04-26T11:45:16;100162.27;;;10.85;49.28
72096;BME280;59968;51.084;16.748;2023-04-26T11:47:45;100160.91;;;10.85;48.94
72096;BME280;59968;51.084;16.748;2023-04-26T11:50:15;100155.18;;;11.01;48.72
72096;BME280;59968;51.084;16.748;2023-04-26T11:52:55;100158.20;;;11.26;48.90
72096;BME280;59968;51.084;16.748;2023-04-26T11:55:32;100160.95;;;11.51;44.25
72096;BME280;59968;51.084;16.748;2023-04-26T11:58:09;100161.45;;;11.52;43.32
72096;BME280;59968;51.084;16.748;2023-04-26T12:01:08;100172.15;;;11.27;47.79
72096;BME280;59968;51.084;16.748;2023-04-26T12:03:37;100183.17;;;10.93;48.46
72096;BME280;59968;51.084;16.748;2023-04-26T12:06:08;100196.55;;;10.69;49.47
72096;BME280;59968;51.084;16.748;2023-04-26T12:08:37;100190.15;;;10.51;46.48
72096;BME280;59968;51.084;16.748;2023-04-26T12:11:26;100187.06;;;10.47;45.88
72096;BME280;59968;51.084;16.748;2023-04-26T12:13:58;100181.27;;;10.52;45.51
72096;BME280;59968;51.084;16.748;2023-04-26T12:16:31;100182.43;;;10.61;45.62
72096;BME280;59968;51.084;16.748;2023-04-26T12:19:03;100181.09;;;10.75;46.09
72096;BME280;59968;51.084;16.748;2023-04-26T12:21:42;100172.14;;;10.88;46.20
72096;BME280;59968;51.084;16.748;2023-04-26T12:24:29;100167.84;;;11.05;46.47
72096;BME280;59968;51.084;16.748;2023-04-26T12:27:03;100166.77;;;11.15;45.51
72096;BME280;59968;51.084;16.748;2023-04-26T12:29:42;100162.45;;;11.11;45.51
72096;BME280;59968;51.084;16.748;2023-04-26T12:32:18;100165.54;;;11.07;44.28
72096;BME280;59968;51.084;16.748;2023-04-26T12:34:57;100160.77;;;11.18;46.06
72096;BME280;59968;51.084;16.748;2023-04-26T12:37:26;100161.19;;;11.40;44.26
72096;BME280;59968;51.084;16.748;2023-04-26T12:39:57;100157.04;;;11.67;43.08
72096;BME280;59968;51.084;16.748;2023-04-26T12:42:27;100159.89;;;11.86;41.78
72096;BME280;59968;51.084;16.748;2023-04-26T12:44:56;100163.34;;;11.85;41.31
72096;BME280;59968;51.084;16.748;2023-04-26T12:47:30;100166.84;;;11.85;42.69
72096;BME280;59968;51.084;16.748;2023-04-26T12:49:59;100164.05;;;11.85;42.65
72096;BME280;59968;51.084;16.748;2023-04-26T12:52:29;100158.73;;;11.77;43.20
72096;BME280;59968;51.084;16.748;2023-04-26T12:55:01;100170.80;;;11.59;43.24
72096;BME280;59968;51.084;16.748;2023-04-26T12:57:33;100182.59;;;11.25;47.36
72096;BME280;59968;51.084;16.748;2023-04-26T13:00:08;100192.14;;;10.96;48.48
72096;BME280;59968;51.084;16.748;2023-04-26T13:02:42;100194.42;;;10.69;49.92
72096;BME280;59968;51.084;16.748;2023-04-26T13:05:14;100207.61;;;10.29;53.16
72096;BME280;59968;51.084;16.748;2023-04-26T13:08:07;100210.65;;;9.98;53.66
72096;BME280;59968;51.084;16.748;2023-04-26T13:10:36;100217.58;;;9.87;54.91
72096;BME280;59968;51.084;16.748;2023-04-26T13:13:11;100203.02;;;9.82;53.68
72096;BME280;59968;51.084;16.748;2023-04-26T13:16:15;100201.11;;;9.83;52.83
72096;BME280;59968;51.084;16.748;2023-04-26T13:18:47;100197.73;;;9.93;53.52
72096;BME280;59968;51.084;16.748;2023-04-26T13:21:21;100195.85;;;10.11;52.49
72096;BME280;59968;51.084;16.748;2023-04-26T13:23:53;100188.44;;;10.26;51.50
72096;BME280;59968;51.084;16.748;2023-04-26T13:26:25;100191.79;;;10.31;50.51
72096;BME280;59968;51.084;16.748;2023-04-26T13:28:55;100197.37;;;10.31;49.76
72096;BME280;59968;51.084;16.748;2023-04-26T13:31:33;100191.65;;;10.23;52.70
72096;BME280;59968;51.084;16.748;2023-04-26T13:34:06;100204.73;;;10.18;52.50
72096;BME280;59968;51.084;16.748;2023-04-26T13:36:38;100206.36;;;10.13;50.95
72096;BME280;59968;51.084;16.748;2023-04-26T13:39:07;100201.66;;;10.10;51.41
72096;BME280;59968;51.084;16.748;2023-04-26T13:41:40;100203.58;;;10.06;51.70
72096;BME280;59968;51.084;16.748;2023-04-26T13:44:09;100202.17;;;10.04;51.86
72096;BME280;59968;51.084;16.748;2023-04-26T13:46:42;100204.91;;;10.03;51.27
72096;BME280;59968;51.084;16.748;2023-04-26T13:49:13;100202.08;;;10.05;50.92
72096;BME280;59968;51.084;16.748;2023-04-26T13:51:42;100207.91;;;10.07;50.69